This is the latest recevied weather packets stored in our database for station/object W5LND-10. If no packets are shown the sender has not sent any weather packets the latest 10 day(s).
| Time | Temp. | Humidity | Pressure | Rain* | Wind** | Luminosity | Snow |
|---|---|---|---|---|---|---|---|
| 1777930872 | 32.22° C | 22% | 1002.4 hPa | 0 mm | - | 450 W/m² | - |
| 1777930572 | 32.22° C | 20% | 1002.4 hPa | 0 mm | - | 431 W/m² | - |
| 1777930272 | 32.22° C | 18% | 1002.5 hPa | 0 mm | - | 638 W/m² | - |
| 1777929972 | 32.22° C | 20% | 1002.5 hPa | 0 mm | - | 722 W/m² | - |
| 1777929672 | 32.22° C | 22% | 1002.6 hPa | 0 mm | - | 733 W/m² | - |
| 1777929372 | 32.22° C | 22% | 1002.7 hPa | 0 mm | - | 647 W/m² | - |
| 1777929072 | 32.22° C | 23% | 1002.8 hPa | 0 mm | - | 591 W/m² | - |
| 1777928772 | 32.22° C | 21% | 1002.7 hPa | 0 mm | - | 489 W/m² | - |
| 1777928472 | 32.78° C | 24% | 1002.8 hPa | 0 mm | - | 501 W/m² | - |
| 1777928172 | 32.78° C | 23% | 1003.1 hPa | 0 mm | - | 780 W/m² | - |
| 1777927872 | 32.78° C | 24% | 1003.1 hPa | 0 mm | - | 851 W/m² | - |
| 1777927572 | 32.22° C | 24% | 1003.2 hPa | 0 mm | - | 900 W/m² | - |
| 1777927272 | 32.22° C | 25% | 1003.4 hPa | 0 mm | - | 759 W/m² | - |
| 1777926972 | 32.22° C | 26% | 1003.4 hPa | 0 mm | - | 823 W/m² | - |
| 1777926672 | 31.67° C | 27% | 1003.4 hPa | 0 mm | - | 668 W/m² | - |
| 1777926372 | 31.67° C | 27% | 1003.7 hPa | 0 mm | - | 694 W/m² | - |
| 1777926072 | 32.22° C | 27% | 1003.8 hPa | 0 mm | - | 865 W/m² | - |
| 1777925787 | 32.22° C | 28% | 1003.9 hPa | 0 mm | - | 877 W/m² | - |
| 1777925658 | 20.56° C | 57% | 1007.4 hPa | 0 mm | - | 297 W/m² | - |
| 1777925473 | 32.22° C | 27% | 1004.1 hPa | 0 mm | - | 983 W/m² | - |
| 1777925172 | 31.67° C | 28% | 1004 hPa | 0 mm | - | 708 W/m² | - |
| 1777924872 | 31.67° C | 28% | 1004.1 hPa | 0 mm | - | 766 W/m² | - |
| 1777924572 | 31.67° C | 30% | 1004.2 hPa | 0 mm | - | 842 W/m² | - |
| 1777923972 | 31.67° C | 31% | 1004.4 hPa | 0 mm | - | 1000 W/m² | - |
| 1777923672 | 31.11° C | 33% | 1004.5 hPa | 0 mm | - | 793 W/m² | - |
* Rain latest hour (hover to see other rain measurements)
** Current wind speed in m/s (hover to see current wind gust speed)